Carroll, Maryland
Current Conditions -  °F | °C
As of 3:54 PM on Friday 19 Dec 2014 (Local Time) from KBWI Reporting Station
Few Clouds Few Clouds  
Wind Chill: 33°   Ceiling: Unl
Heat Index: 39°   Visibility: 10mi
Dew Point: 23°   Wind: 9mph
Humidity: 53%   Direction: 300°WNW
Pressure: 30.14"   Gusts: NA
Location:  39.2853°N, 76.6905°W
Report Text: KBWI 192054Z 30008KT 10SM FEW039 04/M05 A3014 RMK AO2 SLP206 T00391050 53004
Loading
Personal Weather Stations






























Interactive Weather Map New forecast layout! Learn more

10-Day Weather Forecast

Advertisements
Track Severe Weather on mobile